createdAt,value
2017-03-28T00:01:07.392Z,99.99
2017-03-28T00:02:18.587Z,99.99
2017-03-28T00:03:29.584Z,99.99
2017-03-28T00:04:40.576Z,99.99
2017-03-28T00:05:51.563Z,99.99
2017-03-28T00:07:02.558Z,99.99
2017-03-28T00:08:13.549Z,99.99
2017-03-28T00:09:24.537Z,99.99
2017-03-28T00:10:35.732Z,99.99
2017-03-28T00:11:46.775Z,99.99
2017-03-28T00:12:57.980Z,99.99
2017-03-28T00:14:09.180Z,99.99
2017-03-28T00:15:20.180Z,99.99
2017-03-28T00:16:31.168Z,99.99
2017-03-28T00:17:42.175Z,99.99
2017-03-28T00:18:53.385Z,99.99
2017-03-28T00:20:04.367Z,99.99
2017-03-28T00:21:15.356Z,99.99
2017-03-28T00:22:26.339Z,99.99
2017-03-28T00:23:37.330Z,99.99
2017-03-28T00:24:48.324Z,99.99
2017-03-28T00:25:59.309Z,99.99
2017-03-28T00:27:10.352Z,99.99
2017-03-28T00:28:21.548Z,99.99
2017-03-28T00:29:32.539Z,99.99
2017-03-28T00:30:43.534Z,99.99
2017-03-28T00:31:54.521Z,99.99
2017-03-28T00:33:05.508Z,99.99
2017-03-28T00:34:16.701Z,99.99
2017-03-28T00:35:27.904Z,99.99
2017-03-28T00:36:39.136Z,99.99
2017-03-28T00:37:50.123Z,99.99
2017-03-28T00:39:01.329Z,99.99
2017-03-28T00:40:12.315Z,99.99
2017-03-28T00:41:23.526Z,99.99
2017-03-28T00:42:34.513Z,99.99
2017-03-28T00:43:45.508Z,99.99
2017-03-28T00:44:56.703Z,99.99
2017-03-28T00:46:07.899Z,99.99
2017-03-28T00:47:19.078Z,99.99
2017-03-28T00:48:30.080Z,99.99
2017-03-28T00:49:41.076Z,99.99
2017-03-28T00:50:52.293Z,99.99
2017-03-28T00:52:03.331Z,99.99
2017-03-28T00:53:14.519Z,99.99
2017-03-28T00:54:25.506Z,99.99
2017-03-28T00:55:36.492Z,99.99
2017-03-28T00:56:47.482Z,99.99
2017-03-28T00:57:58.467Z,99.99
2017-03-28T00:59:09.659Z,99.99
2017-03-28T01:00:20.647Z,99.99
2017-03-28T01:01:31.638Z,99.99
2017-03-28T01:02:42.627Z,99.99
2017-03-28T01:03:54.028Z,99.99
2017-03-28T01:05:05.014Z,99.99
2017-03-28T01:06:16.000Z,99.99
2017-03-28T01:07:26.987Z,99.99
2017-03-28T01:08:37.982Z,99.99
2017-03-28T01:09:48.971Z,99.99
2017-03-28T01:10:59.979Z,99.99
2017-03-28T01:12:10.966Z,99.99
2017-03-28T01:13:22.242Z,99.99
2017-03-28T01:14:33.444Z,99.99
2017-03-28T01:15:44.437Z,99.99
2017-03-28T01:16:55.424Z,99.99
2017-03-28T01:18:06.624Z,99.99
2017-03-28T01:19:17.829Z,99.99
2017-03-28T01:20:28.822Z,99.99
2017-03-28T01:21:39.812Z,99.99
2017-03-28T01:22:50.996Z,99.99
2017-03-28T01:24:01.985Z,99.99
2017-03-28T01:25:12.984Z,99.99
2017-03-28T01:26:23.968Z,99.99
2017-03-28T01:27:34.949Z,99.99
2017-03-28T01:28:45.987Z,99.99
2017-03-28T01:29:57.186Z,99.99
2017-03-28T01:31:08.176Z,99.99
2017-03-28T01:32:19.153Z,99.99
2017-03-28T01:33:30.139Z,99.99
2017-03-28T01:34:41.127Z,99.99
2017-03-28T01:35:52.306Z,99.99
2017-03-28T01:37:03.316Z,99.99
2017-03-28T01:38:14.306Z,99.99
2017-03-28T01:39:25.288Z,99.99
2017-03-28T01:40:36.487Z,99.99
2017-03-28T01:41:47.481Z,99.99
2017-03-28T01:42:58.525Z,99.99
2017-03-28T01:44:09.520Z,99.99
2017-03-28T01:45:20.943Z,99.99
2017-03-28T01:46:31.948Z,99.99
2017-03-28T01:47:42.935Z,99.99
2017-03-28T01:48:53.925Z,99.99
2017-03-28T01:50:04.931Z,99.99
2017-03-28T01:51:16.116Z,99.99
2017-03-28T01:52:27.102Z,99.99
2017-03-28T01:53:38.090Z,99.99
2017-03-28T01:54:49.487Z,99.99
2017-03-28T01:56:00.484Z,99.99
2017-03-28T01:57:11.874Z,99.99
2017-03-28T01:58:23.078Z,99.99
2017-03-28T01:59:34.134Z,99.99
2017-03-28T02:00:45.125Z,99.99
2017-03-28T02:01:56.107Z,99.99
2017-03-28T02:03:07.089Z,99.99
2017-03-28T02:04:18.082Z,99.99
2017-03-28T02:05:29.083Z,99.99
2017-03-28T02:06:40.068Z,99.99
2017-03-28T02:07:51.059Z,99.99
2017-03-28T02:09:02.312Z,99.99
2017-03-28T02:10:13.503Z,99.99
2017-03-28T02:11:24.696Z,99.99
2017-03-28T02:12:35.699Z,99.99
2017-03-28T02:13:46.689Z,99.99
2017-03-28T02:14:57.680Z,99.99
2017-03-28T02:16:08.670Z,99.99
2017-03-28T02:17:19.855Z,99.99
2017-03-28T02:18:30.847Z,99.99
2017-03-28T02:19:42.294Z,99.99
2017-03-28T02:20:53.279Z,99.99
2017-03-28T02:22:04.280Z,99.99
2017-03-28T02:23:15.263Z,99.99
2017-03-28T02:24:26.441Z,99.99
2017-03-28T02:25:37.624Z,99.99
2017-03-28T02:26:48.601Z,99.99
2017-03-28T02:27:59.589Z,99.99
2017-03-28T02:29:10.581Z,99.99
2017-03-28T02:30:21.574Z,99.99
2017-03-28T02:31:32.554Z,99.99
2017-03-28T02:32:43.743Z,99.99
2017-03-28T02:33:54.725Z,99.99
2017-03-28T02:35:05.709Z,99.99
2017-03-28T02:36:16.696Z,99.99
2017-03-28T02:37:27.693Z,99.99
2017-03-28T02:38:38.885Z,99.99
2017-03-28T02:39:49.866Z,99.99
2017-03-28T02:41:00.851Z,99.99
2017-03-28T02:42:12.037Z,99.99
2017-03-28T02:43:23.228Z,99.99
2017-03-28T02:44:34.224Z,99.99
2017-03-28T02:45:45.233Z,99.99
2017-03-28T02:46:56.272Z,99.99
2017-03-28T02:48:07.249Z,99.99
2017-03-28T02:49:18.245Z,99.99
2017-03-28T02:50:29.231Z,99.99
2017-03-28T02:51:40.214Z,99.99
2017-03-28T02:52:51.203Z,99.99
2017-03-28T02:54:02.398Z,99.99
2017-03-28T02:55:13.595Z,99.99
2017-03-28T02:56:24.628Z,99.99
2017-03-28T02:57:35.649Z,99.99
2017-03-28T02:58:46.648Z,99.99
2017-03-28T02:59:57.647Z,99.99
2017-03-28T03:01:08.834Z,99.99
2017-03-28T03:02:20.029Z,99.99
2017-03-28T03:03:31.014Z,99.99
2017-03-28T03:04:42.014Z,99.99
2017-03-28T03:05:53.006Z,99.99
2017-03-28T03:07:04.043Z,99.99
2017-03-28T03:08:15.222Z,99.99
2017-03-28T03:09:26.218Z,99.99
2017-03-28T03:10:37.416Z,99.99
2017-03-28T03:11:48.605Z,99.99
2017-03-28T03:12:59.604Z,99.99
2017-03-28T03:14:10.587Z,99.99
2017-03-28T03:15:21.614Z,99.99
2017-03-28T03:16:32.599Z,99.99
2017-03-28T03:17:43.597Z,99.99
2017-03-28T03:18:54.587Z,99.99
2017-03-28T03:20:05.578Z,99.99
2017-03-28T03:21:16.567Z,99.99
2017-03-28T03:22:27.556Z,99.99
2017-03-28T03:23:38.542Z,99.99
2017-03-28T03:24:49.554Z,99.99
2017-03-28T03:26:00.547Z,99.99
2017-03-28T03:27:11.559Z,99.99
2017-03-28T03:28:22.548Z,99.99
2017-03-28T03:29:33.588Z,99.99
2017-03-28T03:30:44.983Z,99.99
2017-03-28T03:31:55.966Z,99.99
2017-03-28T03:33:06.950Z,99.99
2017-03-28T03:34:17.932Z,99.99
2017-03-28T03:35:28.921Z,99.99
2017-03-28T03:36:39.902Z,99.99
2017-03-28T03:37:50.893Z,99.99
2017-03-28T03:39:01.881Z,99.99
2017-03-28T03:40:12.864Z,99.99
2017-03-28T03:41:23.847Z,99.99
2017-03-28T03:42:34.830Z,99.99
2017-03-28T03:43:45.828Z,99.99
2017-03-28T03:44:56.874Z,99.99
2017-03-28T03:46:07.868Z,99.99
2017-03-28T03:47:18.865Z,99.99
2017-03-28T03:48:29.890Z,99.99
2017-03-28T03:49:40.883Z,99.99
2017-03-28T03:50:51.866Z,99.99
2017-03-28T03:52:02.857Z,99.99
2017-03-28T03:53:13.842Z,99.99
2017-03-28T03:54:25.091Z,99.99
2017-03-28T03:55:36.091Z,99.99
2017-03-28T03:56:47.077Z,99.99
2017-03-28T03:57:58.269Z,99.99
2017-03-28T03:59:09.455Z,99.99
2017-03-28T04:00:20.849Z,99.99
2017-03-28T04:01:31.832Z,99.99
2017-03-28T04:02:42.819Z,99.99
2017-03-28T04:03:53.804Z,99.99
2017-03-28T04:05:04.802Z,99.99
2017-03-28T04:06:15.985Z,99.99
2017-03-28T04:07:26.972Z,99.99
2017-03-28T04:08:38.164Z,99.99
2017-03-28T04:09:49.204Z,99.99
2017-03-28T04:11:00.197Z,99.99
2017-03-28T04:12:11.186Z,99.99
2017-03-28T04:13:22.173Z,99.99
2017-03-28T04:14:33.160Z,99.99
2017-03-28T04:15:44.142Z,99.99
2017-03-28T04:16:55.322Z,99.99
2017-03-28T04:18:06.338Z,99.99
2017-03-28T04:19:17.338Z,99.99
2017-03-28T04:20:28.333Z,99.99
2017-03-28T04:21:39.314Z,99.99
2017-03-28T04:22:50.303Z,99.99
2017-03-28T04:24:01.503Z,99.99
2017-03-28T04:25:12.487Z,99.99
2017-03-28T04:26:23.524Z,99.99
2017-03-28T04:27:34.523Z,99.99
2017-03-28T04:28:45.514Z,99.99
2017-03-28T04:29:56.503Z,99.99
2017-03-28T04:31:07.484Z,99.99
2017-03-28T04:32:18.474Z,99.99
2017-03-28T04:33:29.466Z,99.99
2017-03-28T04:34:40.451Z,99.99
2017-03-28T04:35:51.441Z,99.99
2017-03-28T04:37:02.425Z,99.99
2017-03-28T04:38:13.608Z,99.99
2017-03-28T04:39:24.589Z,99.99
2017-03-28T04:40:35.578Z,99.99
2017-03-28T04:41:46.963Z,99.99
2017-03-28T04:42:58.363Z,99.99
2017-03-28T04:44:09.348Z,99.99
2017-03-28T04:45:20.333Z,99.99
2017-03-28T04:46:31.321Z,99.99
2017-03-28T04:47:42.311Z,99.99
2017-03-28T04:48:53.497Z,99.99
2017-03-28T04:50:04.690Z,99.99
2017-03-28T04:51:15.936Z,99.99
2017-03-28T04:52:26.926Z,99.99
2017-03-28T04:53:38.109Z,99.99
2017-03-28T04:54:49.122Z,99.99
2017-03-28T04:56:00.113Z,99.99
2017-03-28T04:57:11.101Z,99.99
2017-03-28T04:58:22.081Z,99.99
2017-03-28T04:59:33.079Z,99.99
2017-03-28T05:00:44.289Z,99.99
2017-03-28T05:01:55.477Z,99.99
2017-03-28T05:03:06.461Z,99.99
2017-03-28T05:04:17.448Z,99.99
2017-03-28T05:05:28.635Z,99.99
2017-03-28T05:06:39.627Z,99.99
2017-03-28T05:07:50.871Z,99.99
2017-03-28T05:09:02.059Z,99.99
2017-03-28T05:10:13.257Z,99.99
2017-03-28T05:11:24.240Z,99.99
2017-03-28T05:12:35.224Z,99.99
2017-03-28T05:13:46.224Z,99.99
2017-03-28T05:14:57.217Z,99.99
2017-03-28T05:16:08.203Z,99.99
2017-03-28T05:17:19.410Z,99.99
2017-03-28T05:18:30.411Z,99.99
2017-03-28T05:19:41.415Z,99.99
2017-03-28T05:20:52.402Z,99.99
2017-03-28T05:22:03.388Z,99.99
2017-03-28T05:23:14.420Z,99.99
2017-03-28T05:24:25.811Z,99.99
2017-03-28T05:25:36.798Z,99.99
2017-03-28T05:26:47.788Z,99.99
2017-03-28T05:27:58.771Z,99.99
2017-03-28T05:29:09.773Z,99.99
2017-03-28T05:30:20.975Z,99.99
2017-03-28T05:31:31.955Z,99.99
2017-03-28T05:32:43.211Z,99.99
2017-03-28T05:33:54.398Z,99.99
2017-03-28T05:35:05.394Z,99.99
2017-03-28T05:36:16.582Z,99.99
2017-03-28T05:37:27.566Z,99.99
2017-03-28T05:38:38.554Z,99.99
2017-03-28T05:39:49.550Z,99.99
2017-03-28T05:41:00.543Z,99.99
2017-03-28T05:42:11.536Z,99.99
2017-03-28T05:43:23.184Z,99.99
2017-03-28T05:44:34.177Z,99.99
2017-03-28T05:45:45.173Z,99.99
2017-03-28T05:46:56.565Z,99.99
2017-03-28T05:48:07.554Z,99.99
2017-03-28T05:49:18.547Z,99.99
2017-03-28T05:50:29.543Z,99.99
2017-03-28T05:51:40.740Z,99.99
2017-03-28T05:52:51.720Z,99.99
2017-03-28T05:54:02.905Z,99.99
2017-03-28T05:55:13.944Z,99.99
2017-03-28T05:56:24.940Z,99.99
2017-03-28T05:57:35.925Z,99.99
2017-03-28T05:58:46.909Z,99.99
2017-03-28T05:59:57.898Z,99.99
2017-03-28T06:01:08.881Z,99.99
2017-03-28T06:02:19.906Z,99.99
2017-03-28T06:03:30.891Z,99.99
2017-03-28T06:04:42.138Z,99.99
2017-03-28T06:05:53.126Z,99.99
2017-03-28T06:07:04.315Z,99.99
2017-03-28T06:08:15.306Z,99.99
2017-03-28T06:09:26.297Z,99.99
2017-03-28T06:10:37.291Z,99.99
2017-03-28T06:11:48.483Z,99.99
2017-03-28T06:12:59.478Z,99.99
2017-03-28T06:14:10.472Z,99.99
2017-03-28T06:15:21.466Z,99.99
2017-03-28T06:16:32.459Z,99.99
2017-03-28T06:17:43.649Z,99.99
2017-03-28T06:18:54.666Z,98.45
2017-03-28T06:20:05.704Z,97.6
2017-03-28T06:21:16.689Z,99.4
2017-03-28T06:22:27.687Z,99.99
2017-03-28T06:23:39.075Z,99.99
2017-03-28T06:24:50.083Z,99.99
2017-03-28T06:26:01.276Z,99.99
2017-03-28T06:27:12.272Z,99.99
2017-03-28T06:28:23.465Z,98.97
2017-03-28T06:29:34.665Z,99.99
2017-03-28T06:30:45.700Z,99.99
2017-03-28T06:31:56.890Z,99.99
2017-03-28T06:33:07.887Z,99.99
2017-03-28T06:34:18.872Z,99.3
2017-03-28T06:35:29.870Z,99.59
2017-03-28T06:36:41.059Z,99.99
2017-03-28T06:37:52.036Z,99.5
2017-03-28T06:39:03.031Z,99.02
2017-03-28T06:40:14.026Z,95.94
2017-03-28T06:41:25.017Z,94.89
2017-03-28T06:42:36.470Z,95.84
2017-03-28T06:43:47.470Z,96.69
2017-03-28T06:44:58.666Z,97.64
2017-03-28T06:46:09.656Z,99.74
2017-03-28T06:47:20.652Z,99.99
2017-03-28T06:48:31.855Z,99.99
2017-03-28T06:49:43.039Z,98.08
2017-03-28T06:50:54.232Z,95.94
2017-03-28T06:52:05.687Z,93.41
2017-03-28T06:53:16.678Z,90.12
2017-03-28T06:54:27.674Z,85.12
2017-03-28T06:55:38.682Z,82.4
2017-03-28T06:56:49.685Z,79.1
2017-03-28T06:58:00.882Z,74.46
2017-03-28T06:59:11.877Z,72.01
2017-03-28T07:00:22.874Z,69.09
2017-03-28T07:01:33.874Z,67.27
2017-03-28T07:02:45.132Z,66.16
2017-03-28T07:03:56.144Z,65.39
2017-03-28T07:05:07.167Z,64.28
2017-03-28T07:06:18.167Z,63.32
2017-03-28T07:07:29.163Z,63.35
2017-03-28T07:08:40.169Z,62.14
2017-03-28T07:09:51.178Z,61.66
2017-03-28T07:11:02.177Z,61.31
2017-03-28T07:12:13.181Z,59.77
2017-03-28T07:13:24.391Z,59.9
2017-03-28T07:14:35.398Z,60
2017-03-28T07:15:46.404Z,59.42
2017-03-28T07:16:57.605Z,58.3
2017-03-28T07:18:08.619Z,57.75
2017-03-28T07:19:19.630Z,57.24
2017-03-28T07:20:30.639Z,56.22
2017-03-28T07:21:41.650Z,55.26
2017-03-28T07:22:52.664Z,53.94
2017-03-28T07:24:03.880Z,53.44
2017-03-28T07:25:15.134Z,53.53
2017-03-28T07:26:26.135Z,53.82
2017-03-28T07:27:37.142Z,53.53
2017-03-28T07:28:48.157Z,53.34
2017-03-28T07:29:59.178Z,52.98
2017-03-28T07:31:10.186Z,52.62
2017-03-28T07:32:21.427Z,51.98
2017-03-28T07:33:32.437Z,51.11
2017-03-28T07:34:43.722Z,51.04
2017-03-28T07:35:54.738Z,51.21
2017-03-28T07:37:05.741Z,50.27
2017-03-28T07:38:16.755Z,49.89
2017-03-28T07:39:27.772Z,50.15
2017-03-28T07:40:38.784Z,50.15
2017-03-28T07:41:49.790Z,49.69
2017-03-28T07:43:01.202Z,48.83
2017-03-28T07:44:12.413Z,48.64
2017-03-28T07:45:23.425Z,48.93
2017-03-28T07:46:34.638Z,48.85
2017-03-28T07:47:45.646Z,47.89
2017-03-28T07:48:56.642Z,46.93
2017-03-28T07:50:07.898Z,47.15
2017-03-28T07:51:19.108Z,46.77
2017-03-28T07:52:30.117Z,46.95
2017-03-28T07:53:41.124Z,46.88
2017-03-28T07:54:52.129Z,46.04
2017-03-28T07:56:03.149Z,44.89
2017-03-28T07:57:14.159Z,45.48
2017-03-28T07:58:25.178Z,45.58
2017-03-28T07:59:36.197Z,44.52
2017-03-28T08:00:47.415Z,44.32
2017-03-28T08:01:58.842Z,44.93
2017-03-28T08:03:09.864Z,45.51
2017-03-28T08:04:20.882Z,43.89
2017-03-28T08:05:31.890Z,43.6
2017-03-28T08:06:42.943Z,42.85
2017-03-28T08:07:54.011Z,42.75
2017-03-28T08:09:05.015Z,42.46
2017-03-28T08:10:16.037Z,41.98
2017-03-28T08:11:27.035Z,43.14
2017-03-28T08:12:38.050Z,43.41
2017-03-28T08:13:49.071Z,43.24
2017-03-28T08:15:00.089Z,43.7
2017-03-28T08:16:11.109Z,43.19
2017-03-28T08:17:22.166Z,43.27
2017-03-28T08:18:33.186Z,43.54
2017-03-28T08:19:44.197Z,44.79
2017-03-28T08:20:55.209Z,43.85
2017-03-28T08:22:06.219Z,43.75
2017-03-28T08:23:17.234Z,42.79
2017-03-28T08:24:28.252Z,43
2017-03-28T08:25:39.253Z,43.1
2017-03-28T08:26:50.468Z,43.29
2017-03-28T08:28:01.768Z,43
2017-03-28T08:29:12.773Z,43.19
2017-03-28T08:30:23.794Z,43.38
2017-03-28T08:31:35.212Z,43.19
2017-03-28T08:32:46.227Z,43.19
2017-03-28T08:33:57.442Z,42.61
2017-03-28T08:35:08.463Z,42.88
2017-03-28T08:36:19.483Z,43.27
2017-03-28T08:37:30.502Z,43.55
2017-03-28T08:38:41.515Z,42.88
2017-03-28T08:39:52.527Z,42.3
2017-03-28T08:41:03.547Z,42.86
2017-03-28T08:42:14.566Z,44.11
2017-03-28T08:43:25.580Z,43.82
2017-03-28T08:44:36.595Z,44.71
2017-03-28T08:45:47.616Z,44.42
2017-03-28T08:46:58.634Z,44.81
2017-03-28T08:48:09.651Z,45.27
2017-03-28T08:49:20.675Z,44.98
2017-03-28T08:50:31.739Z,45.39
2017-03-28T08:51:42.749Z,45.68
2017-03-28T08:52:53.758Z,44.32
2017-03-28T08:54:04.774Z,44.52
2017-03-28T08:55:15.785Z,44.35
2017-03-28T08:56:26.794Z,43.48
2017-03-28T08:57:38.005Z,43.6
2017-03-28T08:58:49.229Z,43.79
2017-03-28T09:00:00.495Z,43.87
2017-03-28T09:01:11.516Z,44.18
2017-03-28T09:02:22.542Z,42.54
2017-03-28T09:03:33.552Z,43.79
2017-03-28T09:04:44.817Z,44.37
2017-03-28T09:05:55.828Z,43.7
2017-03-28T09:07:06.841Z,43.5
2017-03-28T09:08:17.860Z,42.73
2017-03-28T09:09:28.889Z,44.27
2017-03-28T09:10:39.955Z,43.79
2017-03-28T09:11:51.167Z,43.89
2017-03-28T09:13:02.177Z,42.27
2017-03-28T09:14:13.192Z,42.93
2017-03-28T09:15:24.411Z,43.12
2017-03-28T09:16:35.427Z,44.08
2017-03-28T09:17:46.650Z,43.41
2017-03-28T09:18:57.674Z,42.94
2017-03-28T09:20:08.696Z,42.97
2017-03-28T09:21:19.769Z,42.29
2017-03-28T09:22:30.785Z,42.48
2017-03-28T09:23:42.003Z,41.23
2017-03-28T09:24:53.023Z,41.81
2017-03-28T09:26:04.042Z,43.81
2017-03-28T09:27:15.056Z,42.94
2017-03-28T09:28:26.079Z,43.52
2017-03-28T09:29:37.093Z,42.75
2017-03-28T09:30:48.313Z,44.18
2017-03-28T09:31:59.541Z,44.08
2017-03-28T09:33:10.560Z,44.18
2017-03-28T09:34:21.580Z,42.94
2017-03-28T09:35:32.607Z,44.27
2017-03-28T09:36:43.617Z,43.91
2017-03-28T09:37:54.631Z,43.62
2017-03-28T09:39:05.905Z,45.17
2017-03-28T09:40:16.953Z,44.68
2017-03-28T09:41:27.959Z,43.54
2017-03-28T09:42:38.990Z,42.97
2017-03-28T09:43:50.002Z,43.74
2017-03-28T09:45:01.015Z,43.18
2017-03-28T09:46:12.028Z,42.79
2017-03-28T09:47:23.038Z,42.24
2017-03-28T09:48:34.103Z,40.61
2017-03-28T09:49:45.114Z,41.29
2017-03-28T09:50:56.330Z,39.67
2017-03-28T09:52:07.347Z,42.08
2017-03-28T09:53:18.566Z,41.24
2017-03-28T09:54:29.586Z,41.42
2017-03-28T09:55:40.605Z,41.24
2017-03-28T09:56:51.619Z,40.63
2017-03-28T09:58:02.629Z,40.92
2017-03-28T09:59:13.701Z,39.95
2017-03-28T10:00:24.720Z,42.47
2017-03-28T10:01:35.741Z,42.86
2017-03-28T10:02:46.760Z,41.21
2017-03-28T10:03:57.783Z,42.47
2017-03-28T10:05:08.802Z,42.96
2017-03-28T10:06:19.819Z,42.83
2017-03-28T10:07:30.832Z,41.48
2017-03-28T10:08:42.055Z,43.88
2017-03-28T10:09:53.273Z,44.17
2017-03-28T10:11:04.288Z,42.91
2017-03-28T10:12:15.307Z,42.33
2017-03-28T10:13:26.318Z,42.74
2017-03-28T10:14:37.327Z,44.48
2017-03-28T10:15:48.540Z,44.29
2017-03-28T10:16:59.763Z,43.05
2017-03-28T10:18:10.978Z,43.92
2017-03-28T10:19:21.998Z,43.92
2017-03-28T10:20:33.014Z,43.63
2017-03-28T10:21:44.237Z,43.34
2017-03-28T10:22:55.255Z,43.73
2017-03-28T10:24:06.468Z,44.79
2017-03-28T10:25:17.535Z,43.34
2017-03-28T10:26:29.160Z,44.02
2017-03-28T10:27:40.174Z,42.37
2017-03-28T10:28:51.399Z,43.24
2017-03-28T10:30:02.411Z,44.67
2017-03-28T10:31:13.428Z,46.1
2017-03-28T10:32:24.444Z,46.39
2017-03-28T10:33:35.447Z,46.3
2017-03-28T10:34:46.662Z,46.68
2017-03-28T10:35:57.924Z,45.42
2017-03-28T10:37:09.133Z,45.23
2017-03-28T10:38:20.350Z,45.89
2017-03-28T10:39:31.367Z,45.21
2017-03-28T10:40:42.383Z,45.31
2017-03-28T10:41:53.399Z,45.79
2017-03-28T10:43:04.417Z,45.21
2017-03-28T10:44:15.440Z,47.45
2017-03-28T10:45:26.458Z,45.91
2017-03-28T10:46:37.474Z,44.38
2017-03-28T10:47:48.477Z,43.8
2017-03-28T10:48:59.701Z,46.03
2017-03-28T10:50:10.734Z,44.84
2017-03-28T10:51:21.763Z,45.91
2017-03-28T10:52:32.797Z,46.49
2017-03-28T10:53:43.815Z,45.79
2017-03-28T10:54:55.037Z,44.92
2017-03-28T10:56:06.046Z,44.24
2017-03-28T10:57:17.054Z,47.5
2017-03-28T10:58:28.070Z,45.28
2017-03-28T10:59:39.090Z,47.7
2017-03-28T11:00:50.099Z,47.02
2017-03-28T11:02:01.107Z,48.66
2017-03-28T11:03:12.384Z,49.82
2017-03-28T11:04:23.407Z,48.21
2017-03-28T11:05:34.462Z,47.05
2017-03-28T11:06:45.474Z,46.95
2017-03-28T11:07:56.503Z,43.88
2017-03-28T11:09:07.522Z,47.38
2017-03-28T11:10:18.533Z,44.96
2017-03-28T11:11:29.747Z,44.96
2017-03-28T11:12:41.013Z,46.22
2017-03-28T11:13:52.036Z,45.08
2017-03-28T11:15:03.047Z,45.95
2017-03-28T11:16:14.059Z,46.34
2017-03-28T11:17:25.273Z,44.12
2017-03-28T11:18:36.295Z,47.21
2017-03-28T11:19:47.317Z,45.18
2017-03-28T11:20:58.334Z,46.15
2017-03-28T11:22:09.552Z,45.47
2017-03-28T11:23:20.618Z,44.31
2017-03-28T11:24:31.842Z,41.24
2017-03-28T11:25:42.849Z,41.21
2017-03-28T11:26:53.862Z,40.05
2017-03-28T11:28:04.881Z,41.29
2017-03-28T11:29:15.902Z,41.19
2017-03-28T11:30:26.933Z,43.78
2017-03-28T11:31:37.945Z,43.01
2017-03-28T11:32:48.958Z,42.91
2017-03-28T11:34:00.174Z,42.35
2017-03-28T11:35:11.386Z,41.39
2017-03-28T11:36:22.405Z,41.7
2017-03-28T11:37:33.622Z,41.41
2017-03-28T11:38:44.628Z,40.44
2017-03-28T11:39:55.896Z,42.1
2017-03-28T11:41:07.114Z,41.52
2017-03-28T11:42:18.139Z,41.52
2017-03-28T11:43:29.171Z,39.8
2017-03-28T11:44:40.385Z,39.88
2017-03-28T11:45:51.405Z,40.94
2017-03-28T11:47:02.424Z,38.73
2017-03-28T11:48:13.639Z,39.61
2017-03-28T11:49:24.860Z,39.61
2017-03-28T11:50:35.873Z,40.17
2017-03-28T11:51:46.891Z,42.2
2017-03-28T11:52:57.917Z,40.15
2017-03-28T11:54:08.932Z,41.5
2017-03-28T11:55:20.204Z,41.5
2017-03-28T11:56:31.418Z,41.5
2017-03-28T11:57:42.838Z,40.94
2017-03-28T11:58:53.865Z,39.49
2017-03-28T12:00:05.080Z,40.36
2017-03-28T12:01:16.092Z,40.09
2017-03-28T12:02:27.111Z,39.7
2017-03-28T12:03:38.129Z,40.31
2017-03-28T12:04:49.146Z,40.11
2017-03-28T12:06:00.163Z,39.72
2017-03-28T12:07:11.381Z,39.34
2017-03-28T12:08:22.385Z,38.54
2017-03-28T12:09:33.389Z,39.8
2017-03-28T12:10:44.394Z,40.77
2017-03-28T12:11:55.409Z,37.57
2017-03-28T12:13:06.615Z,38.15
2017-03-28T12:14:17.625Z,40.19
2017-03-28T12:15:28.844Z,39.51
2017-03-28T12:16:39.862Z,40.58
2017-03-28T12:17:50.865Z,39.61
2017-03-28T12:19:02.270Z,38.54
2017-03-28T12:20:13.275Z,39.51
2017-03-28T12:21:24.489Z,39.8
2017-03-28T12:22:35.498Z,42.22
2017-03-28T12:23:46.712Z,42.92
2017-03-28T12:24:57.749Z,44.76
2017-03-28T12:26:08.751Z,45.54
2017-03-28T12:27:19.756Z,45.34
2017-03-28T12:28:30.976Z,46.41
2017-03-28T12:29:42.182Z,44.27
2017-03-28T12:30:53.444Z,47.57
2017-03-28T12:32:04.657Z,43.6
2017-03-28T12:33:15.861Z,43.21
2017-03-28T12:34:27.075Z,40.31
2017-03-28T12:35:38.091Z,39.14
2017-03-28T12:36:49.102Z,38.46
2017-03-28T12:38:00.111Z,37.69
2017-03-28T12:39:11.321Z,46.04
2017-03-28T12:40:22.329Z,46.53
2017-03-28T12:41:33.338Z,43.72
2017-03-28T12:42:44.352Z,44.47
2017-03-28T12:43:55.369Z,43.02
2017-03-28T12:45:06.589Z,45.9
2017-03-28T12:46:17.596Z,47.62
2017-03-28T12:47:28.602Z,48.37
2017-03-28T12:48:39.610Z,44.4
2017-03-28T12:49:50.611Z,43.44
2017-03-28T12:51:01.612Z,42.96
2017-03-28T12:52:12.618Z,43.8
2017-03-28T12:53:23.634Z,42.93
2017-03-28T12:54:34.640Z,48.44
2017-03-28T12:55:45.667Z,47.31
2017-03-28T12:56:56.675Z,47.41
2017-03-28T12:58:07.681Z,50.21
2017-03-28T12:59:18.682Z,44.12
2017-03-28T13:00:30.139Z,44.5
2017-03-28T13:01:41.148Z,46.46
2017-03-28T13:02:52.161Z,47.6
2017-03-28T13:04:03.171Z,50.12
2017-03-28T13:05:14.186Z,50.4
2017-03-28T13:06:25.190Z,48.18
2017-03-28T13:07:36.221Z,47.21
2017-03-28T13:08:47.229Z,42.93
2017-03-28T13:09:58.239Z,41.48
2017-03-28T13:11:09.303Z,44.53
2017-03-28T13:12:20.508Z,49.55
2017-03-28T13:13:31.515Z,50.91
2017-03-28T13:14:42.514Z,51.39
2017-03-28T13:15:53.519Z,48.21
2017-03-28T13:17:04.524Z,48.21
2017-03-28T13:18:15.718Z,46.85
2017-03-28T13:19:26.731Z,50.33
2017-03-28T13:20:37.934Z,44.92
2017-03-28T13:21:49.190Z,52.45
2017-03-28T13:23:00.186Z,56.8
2017-03-28T13:24:11.390Z,54.29
2017-03-28T13:25:22.387Z,52.84
2017-03-28T13:26:33.583Z,51.39
2017-03-28T13:27:44.595Z,48.49
2017-03-28T13:28:55.636Z,46.06
2017-03-28T13:30:06.654Z,51.37
2017-03-28T13:31:17.655Z,47.12
2017-03-28T13:32:28.709Z,52.43
2017-03-28T13:33:39.709Z,51.65
2017-03-28T13:34:50.709Z,50.4
2017-03-28T13:36:01.713Z,52.91
2017-03-28T13:37:12.717Z,46.44
2017-03-28T13:38:23.717Z,43.72
2017-03-28T13:39:34.721Z,47.55
2017-03-28T13:40:45.718Z,50.35
2017-03-28T13:41:56.727Z,50.62
2017-03-28T13:43:07.728Z,51.1
2017-03-28T13:44:18.732Z,48.3
2017-03-28T13:45:29.736Z,48.97
2017-03-28T13:46:40.751Z,49.55
2017-03-28T13:47:51.751Z,47.44
2017-03-28T13:49:03.013Z,52.25
2017-03-28T13:50:14.013Z,53.61
2017-03-28T13:51:25.222Z,52.35
2017-03-28T13:52:36.227Z,54.88
2017-03-28T13:53:47.228Z,56.04
2017-03-28T13:54:58.231Z,56.04
2017-03-28T13:56:09.236Z,54.14
2017-03-28T13:57:20.463Z,54.43
2017-03-28T13:58:31.526Z,55.08
2017-03-28T13:59:42.525Z,54.62
2017-03-28T14:00:53.530Z,55.2
2017-03-28T14:02:04.528Z,52.59
2017-03-28T14:03:15.736Z,53.75
2017-03-28T14:04:26.743Z,52.98
2017-03-28T14:05:37.747Z,54.05
2017-03-28T14:06:48.949Z,56.36
2017-03-28T14:08:00.159Z,52.5
2017-03-28T14:09:11.411Z,50.96
2017-03-28T14:10:22.419Z,54.11
2017-03-28T14:11:33.423Z,51.51
2017-03-28T14:12:44.434Z,47.45
2017-03-28T14:13:55.440Z,51.25
2017-03-28T14:15:06.441Z,51.41
2017-03-28T14:16:17.448Z,47.58
2017-03-28T14:17:28.448Z,52.57
2017-03-28T14:18:39.451Z,54.11
2017-03-28T14:19:50.659Z,55.3
2017-03-28T14:21:01.664Z,53.27
2017-03-28T14:22:12.672Z,50.09
2017-03-28T14:23:23.676Z,55.18
2017-03-28T14:24:34.676Z,54.21
2017-03-28T14:25:45.679Z,49.77
2017-03-28T14:26:56.680Z,48.23
2017-03-28T14:28:07.689Z,52.83
2017-03-28T14:29:18.689Z,52.55
2017-03-28T14:30:29.683Z,54.66
2017-03-28T14:31:40.732Z,50.13
2017-03-28T14:32:51.734Z,49.94
2017-03-28T14:34:02.737Z,49.94
2017-03-28T14:35:13.734Z,52.42
2017-03-28T14:36:24.729Z,51.46
2017-03-28T14:37:35.725Z,52.55
2017-03-28T14:38:46.731Z,51.94
2017-03-28T14:39:57.732Z,52.45
2017-03-28T14:41:09.188Z,50.04
2017-03-28T14:42:20.379Z,50.9
2017-03-28T14:43:31.575Z,52.55
2017-03-28T14:44:42.782Z,51.48
2017-03-28T14:45:53.789Z,49.65
2017-03-28T14:47:04.789Z,51.1
2017-03-28T14:48:15.785Z,51.58
2017-03-28T14:49:26.989Z,52.16
2017-03-28T14:50:38.001Z,52.25
2017-03-28T14:51:49.045Z,53.99
2017-03-28T14:53:00.053Z,49.27
2017-03-28T14:54:11.069Z,52.16
2017-03-28T14:55:22.073Z,52.35
2017-03-28T14:56:33.077Z,54.66
2017-03-28T14:57:44.082Z,55.82
2017-03-28T14:58:55.083Z,51.2
2017-03-28T15:00:06.289Z,50.04
2017-03-28T15:01:17.306Z,51
2017-03-28T15:02:28.319Z,52.42
2017-03-28T15:03:39.518Z,53.39
2017-03-28T15:04:50.519Z,52.71
2017-03-28T15:06:01.732Z,52.04
2017-03-28T15:07:12.732Z,55.22
2017-03-28T15:08:23.982Z,51.17
2017-03-28T15:09:34.998Z,52.13
2017-03-28T15:10:45.996Z,50.11
2017-03-28T15:11:56.998Z,48.18
2017-03-28T15:13:08.003Z,50.49
2017-03-28T15:14:19.004Z,50.49
2017-03-28T15:15:30.007Z,53.48
2017-03-28T15:16:41.008Z,50.88
2017-03-28T15:17:52.067Z,52.61